Time;durP1;ratioP1;P1;durP2;ratioP2;P2;SDS_P1;SDS_P2;PMS_P1;PMS_P2;Temp;Humidity;BMP_temperature;BMP_pressure;BME280_temperature;BME280_humidity;BME280_pressure;Samples;Min_cycle;Max_cycle;Signal;HPM_P1;HPM_P2
2023/12/21 00:01:34;;;;;;;26.92;3.13;;;9.10;99.90;;;;;;5158491;27;20049;-85
2023/12/21 00:04:01;;;;;;;21.58;3.30;;;9.10;99.90;;;;;;5157389;27;20046;-86
2023/12/21 00:06:27;;;;;;;24.05;4.15;;;8.90;99.90;;;;;;5158110;27;20114;-86
2023/12/21 00:08:53;;;;;;;25.95;3.25;;;9.20;99.90;;;;;;5139858;27;20537;-85
2023/12/21 00:11:19;;;;;;;33.45;4.05;;;8.90;99.90;;;;;;5156799;27;20041;-85
2023/12/21 00:13:44;;;;;;;21.75;3.35;;;8.90;99.90;;;;;;5157544;27;20140;-86
2023/12/21 00:16:10;;;;;;;29.17;3.58;;;9.30;99.90;;;;;;5158032;27;20121;-85
2023/12/21 00:18:36;;;;;;;20.90;3.33;;;9.30;99.90;;;;;;5175453;27;20387;-86
2023/12/21 00:21:02;;;;;;;27.08;3.28;;;8.90;99.90;;;;;;5175767;27;20163;-85
2023/12/21 00:23:27;;;;;;;29.05;3.67;;;8.90;99.90;;;;;;5157571;27;20046;-86
2023/12/21 00:25:53;;;;;;;22.13;3.95;;;9.20;99.90;;;;;;5139738;27;20503;-85
2023/12/21 00:28:19;;;;;;;21.75;3.33;;;8.30;99.90;;;;;;5153185;27;20045;-86
2023/12/21 00:30:44;;;;;;;23.00;2.75;;;9.60;99.90;;;;;;5175947;27;20039;-85
2023/12/21 00:33:10;;;;;;;26.70;3.20;;;9.40;99.90;;;;;;5157352;27;20066;-85
2023/12/21 00:35:36;;;;;;;18.92;3.38;;;8.90;99.90;;;;;;5157153;27;20490;-85
2023/12/21 00:38:03;;;;;;;22.23;3.45;;;9.40;99.90;;;;;;5156339;27;20046;-85
2023/12/21 00:40:28;;;;;;;23.77;3.38;;;8.90;99.90;;;;;;5176073;27;20042;-85
2023/12/21 00:42:54;;;;;;;28.65;3.30;;;8.90;99.90;;;;;;5156877;27;20115;-85
2023/12/21 00:45:20;;;;;;;23.58;3.33;;;9.30;99.90;;;;;;5156938;27;20083;-86
2023/12/21 00:47:46;;;;;;;26.95;3.17;;;9.20;99.90;;;;;;5175437;27;20379;-86
2023/12/21 00:50:15;;;;;;;18.52;3.03;;;9.00;99.90;;;;;;5175118;27;20044;-85
2023/12/21 00:52:41;;;;;;;21.52;2.67;;;9.00;99.90;;;;;;5175504;27;20053;-85
2023/12/21 00:55:07;;;;;;;27.40;3.20;;;9.70;99.90;;;;;;5175682;27;20038;-85
2023/12/21 00:57:33;;;;;;;26.25;2.90;;;9.00;99.90;;;;;;5175440;27;20082;-86
2023/12/21 00:59:59;;;;;;;24.33;2.92;;;9.30;99.90;;;;;;5172983;27;20074;-85
2023/12/21 01:02:24;;;;;;;22.38;3.10;;;9.60;99.90;;;;;;5175239;27;20038;-85
2023/12/21 01:04:50;;;;;;;34.00;3.15;;;9.70;99.90;;;;;;5174500;27;20046;-85
2023/12/21 01:07:16;;;;;;;17.42;2.90;;;9.00;99.90;;;;;;5155787;27;20070;-85
2023/12/21 01:09:41;;;;;;;23.83;2.47;;;9.00;99.90;;;;;;5156586;27;20053;-85
2023/12/21 01:12:07;;;;;;;25.27;2.42;;;9.00;99.90;;;;;;5156595;27;20561;-85
2023/12/21 01:14:33;;;;;;;25.80;3.00;;;9.00;99.90;;;;;;5138915;27;20049;-85
2023/12/21 01:16:59;;;;;;;21.17;3.58;;;9.70;99.90;;;;;;5156524;27;20042;-86
2023/12/21 01:19:26;;;;;;;19.92;3.60;;;9.20;99.90;;;;;;5156402;27;20061;-85
2023/12/21 01:21:52;;;;;;;16.02;2.53;;;9.20;99.90;;;;;;5156123;27;20547;-86
2023/12/21 01:24:18;;;;;;;17.63;2.50;;;9.30;99.90;;;;;;5156502;27;20034;-85
2023/12/21 01:26:44;;;;;;;26.90;3.45;;;9.60;99.90;;;;;;5175268;27;20041;-86
2023/12/21 01:29:10;;;;;;;20.58;3.08;;;9.10;99.90;;;;;;5156275;27;20038;-85
2023/12/21 01:31:35;;;;;;;20.98;2.45;;;9.50;99.90;;;;;;5174637;27;20082;-85
2023/12/21 01:34:01;;;;;;;15.43;2.65;;;9.10;99.90;;;;;;5138318;27;20077;-86
2023/12/21 01:36:28;;;;;;;15.77;2.38;;;9.10;99.90;;;;;;5175229;27;20038;-85
2023/12/21 01:38:54;;;;;;;22.27;3.22;;;9.00;99.90;;;;;;5174878;27;20443;-86
2023/12/21 01:41:20;;;;;;;15.82;1.98;;;9.10;99.90;;;;;;5138241;27;20087;-85
2023/12/21 01:43:46;;;;;;;22.95;3.10;;;9.20;99.90;;;;;;5155935;27;20046;-85
2023/12/21 01:46:11;;;;;;;19.70;2.70;;;9.30;99.90;;;;;;5156075;27;20095;-86
2023/12/21 01:48:39;;;;;;;20.20;2.47;;;9.30;99.90;;;;;;5156083;27;20397;-86
2023/12/21 01:51:05;;;;;;;22.08;2.97;;;9.00;99.90;;;;;;5156165;27;20050;-85
2023/12/21 01:53:33;;;;;;;23.80;3.15;;;9.10;99.90;;;;;;5174290;27;20082;-86
2023/12/21 01:56:00;;;;;;;17.02;2.85;;;9.40;99.90;;;;;;5157617;27;20050;-85
2023/12/21 01:58:25;;;;;;;24.13;3.85;;;9.80;99.90;;;;;;5160684;27;20050;-86
2023/12/21 02:00:52;;;;;;;17.25;3.53;;;9.50;99.90;;;;;;5142657;27;20179;-86
2023/12/21 02:03:18;;;;;;;19.17;2.45;;;9.00;99.90;;;;;;5178711;27;20410;-85
2023/12/21 02:05:44;;;;;;;21.38;2.75;;;9.60;99.90;;;;;;5159999;27;20046;-85
2023/12/21 02:08:09;;;;;;;19.00;2.70;;;9.00;99.90;;;;;;5143157;27;20042;-86
2023/12/21 02:10:39;;;;;;;16.38;3.38;;;9.00;99.90;;;;;;5160290;27;20103;-86
2023/12/21 02:13:05;;;;;;;29.75;2.97;;;9.40;99.90;;;;;;5159968;27;20064;-86
2023/12/21 02:15:31;;;;;;;19.08;3.08;;;9.30;99.90;;;;;;5134640;27;21343;-86
2023/12/21 02:18:03;;;;;;;28.45;3.38;;;9.00;99.90;;;;;;5178466;27;20098;-86
2023/12/21 02:20:29;;;;;;;24.50;3.50;;;8.90;99.90;;;;;;5160118;27;20038;-85
2023/12/21 02:22:59;;;;;;;18.90;3.20;;;8.90;99.90;;;;;;5142679;27;20080;-86
2023/12/21 02:25:25;;;;;;;18.63;3.03;;;9.30;99.90;;;;;;5142325;27;20535;-86
2023/12/21 02:27:51;;;;;;;23.00;3.55;;;9.60;99.90;;;;;;5159839;27;20462;-85
2023/12/21 02:30:17;;;;;;;22.33;2.83;;;9.00;99.90;;;;;;5141876;27;20030;-85
2023/12/21 02:32:43;;;;;;;17.70;3.28;;;8.90;99.90;;;;;;5160156;27;20042;-86
2023/12/21 02:35:09;;;;;;;28.17;3.20;;;8.90;99.90;;;;;;5177951;27;20482;-85
2023/12/21 02:37:34;;;;;;;23.40;2.90;;;8.90;99.90;;;;;;5159712;27;20423;-86
2023/12/21 02:40:00;;;;;;;22.20;2.95;;;9.80;99.90;;;;;;5178327;27;20042;-85
2023/12/21 02:42:26;;;;;;;26.38;3.60;;;9.60;99.90;;;;;;5178470;27;20075;-85
2023/12/21 02:44:52;;;;;;;18.33;3.25;;;8.90;99.90;;;;;;5159236;27;20516;-86
2023/12/21 02:47:17;;;;;;;25.30;3.05;;;9.00;99.90;;;;;;5175903;27;20530;-85
2023/12/21 02:49:43;;;;;;;18.15;2.80;;;8.90;99.90;;;;;;5171651;27;20103;-86
2023/12/21 02:52:09;;;;;;;14.05;2.83;;;9.10;99.90;;;;;;5142308;27;20042;-85
2023/12/21 02:54:35;;;;;;;22.10;2.90;;;9.10;99.90;;;;;;5159096;27;20050;-86
2023/12/21 02:57:00;;;;;;;21.58;3.15;;;9.10;99.90;;;;;;5177745;27;20471;-86
2023/12/21 02:59:26;;;;;;;19.73;2.95;;;9.00;99.90;;;;;;5159279;27;20050;-85
2023/12/21 03:01:52;;;;;;;22.15;3.75;;;9.00;99.90;;;;;;5142222;27;20034;-86
2023/12/21 03:04:17;;;;;;;17.33;2.80;;;9.30;99.90;;;;;;5177343;27;20117;-85
2023/12/21 03:06:43;;;;;;;20.63;3.35;;;9.60;99.90;;;;;;5158831;27;20046;-85
2023/12/21 03:09:09;;;;;;;17.92;3.10;;;9.80;99.90;;;;;;5159515;27;20054;-86
2023/12/21 03:11:35;;;;;;;19.45;2.95;;;9.20;99.90;;;;;;5177384;27;20482;-86
2023/12/21 03:14:02;;;;;;;18.05;2.95;;;9.30;99.90;;;;;;5177424;27;20054;-85
2023/12/21 03:16:30;;;;;;;20.27;3.03;;;8.80;99.90;;;;;;5181343;27;20126;-87
2023/12/21 03:18:55;;;;;;;14.27;3.55;;;9.30;99.90;;;;;;5157763;27;20046;-85
2023/12/21 03:21:21;;;;;;;12.18;3.17;;;9.70;99.90;;;;;;5140983;27;20486;-85
2023/12/21 03:23:47;;;;;;;17.08;2.92;;;8.90;99.90;;;;;;5175885;27;20497;-86
2023/12/21 03:26:13;;;;;;;15.02;2.45;;;9.20;99.90;;;;;;5176366;27;20034;-86
2023/12/21 03:28:44;;;;;;;15.25;2.85;;;8.90;99.90;;;;;;5140450;27;20090;-87
2023/12/21 03:31:10;;;;;;;26.48;3.58;;;9.20;99.90;;;;;;5176215;27;20052;-85
2023/12/21 03:33:36;;;;;;;20.40;3.47;;;9.50;99.90;;;;;;5156915;27;20043;-86
2023/12/21 03:36:02;;;;;;;21.05;3.65;;;9.60;99.90;;;;;;5176096;27;20398;-86
2023/12/21 03:38:27;;;;;;;14.82;3.22;;;8.90;99.90;;;;;;5156972;27;20091;-86
2023/12/21 03:40:53;;;;;;;15.60;2.80;;;8.90;99.90;;;;;;5157380;27;20087;-86
2023/12/21 03:43:20;;;;;;;15.15;2.65;;;9.60;99.90;;;;;;5176123;27;20073;-86
2023/12/21 03:45:45;;;;;;;18.38;2.65;;;8.90;99.90;;;;;;5139799;27;20475;-86
2023/12/21 03:48:11;;;;;;;15.77;3.13;;;9.10;99.90;;;;;;5175798;27;20083;-86
2023/12/21 03:50:37;;;;;;;20.88;3.70;;;9.20;99.90;;;;;;5156964;27;20038;-86
2023/12/21 03:53:03;;;;;;;21.25;3.20;;;9.70;99.90;;;;;;5157293;27;20038;-86
2023/12/21 03:55:29;;;;;;;22.67;3.28;;;8.90;99.90;;;;;;5175246;27;20045;-86
2023/12/21 03:57:56;;;;;;;21.60;4.35;;;9.60;99.90;;;;;;5156809;27;20399;-86
2023/12/21 04:00:22;;;;;;;20.48;3.22;;;9.80;99.90;;;;;;5139756;27;20043;-85
2023/12/21 04:02:48;;;;;;;18.60;3.38;;;9.60;99.90;;;;;;5157045;27;20494;-86
2023/12/21 04:05:14;;;;;;;20.65;3.33;;;9.00;99.90;;;;;;5155708;27;20034;-86
2023/12/21 04:07:40;;;;;;;25.75;3.63;;;9.30;99.90;;;;;;5156845;27;20050;-85
2023/12/21 04:10:06;;;;;;;20.40;3.55;;;9.60;99.90;;;;;;5157209;27;20044;-86
2023/12/21 04:12:32;;;;;;;20.13;3.00;;;8.90;99.90;;;;;;5156971;27;20390;-86
2023/12/21 04:14:57;;;;;;;19.15;3.13;;;9.10;99.90;;;;;;5099209;27;1136675;-86
2023/12/21 04:17:23;;;;;;;19.05;3.55;;;8.90;99.90;;;;;;5173632;27;20092;-86
2023/12/21 04:19:49;;;;;;;18.67;3.35;;;9.20;99.90;;;;;;5153288;27;20125;-85
2023/12/21 04:22:14;;;;;;;14.35;3.30;;;9.30;99.90;;;;;;5155681;27;20056;-86
2023/12/21 04:24:46;;;;;;;21.73;3.80;;;9.60;99.90;;;;;;5139959;27;20042;-87
2023/12/21 04:27:12;;;;;;;15.57;2.95;;;9.00;99.90;;;;;;5176067;27;20038;-85
2023/12/21 04:29:38;;;;;;;20.13;3.78;;;9.20;99.90;;;;;;5176083;27;20037;-86
2023/12/21 04:32:05;;;;;;;23.63;3.30;;;9.20;99.90;;;;;;5157154;27;20046;-86
2023/12/21 04:34:31;;;;;;;18.85;3.05;;;9.00;99.90;;;;;;5175777;27;20038;-85
2023/12/21 04:36:57;;;;;;;21.23;3.80;;;9.00;99.90;;;;;;5156623;27;20090;-86
2023/12/21 04:39:22;;;;;;;17.33;3.08;;;9.80;99.90;;;;;;5157367;27;20038;-86
2023/12/21 04:41:50;;;;;;;22.63;3.33;;;9.00;99.90;;;;;;5139439;27;20066;-86
2023/12/21 04:44:16;;;;;;;20.70;2.70;;;9.00;99.90;;;;;;5175429;27;20109;-85
2023/12/21 04:46:44;;;;;;;25.35;3.90;;;9.70;99.90;;;;;;5156922;27;20042;-85
2023/12/21 04:49:10;;;;;;;16.30;2.72;;;8.90;99.90;;;;;;5156585;27;20398;-85
2023/12/21 04:51:35;;;;;;;20.02;3.42;;;8.90;99.90;;;;;;5175498;27;20034;-86
2023/12/21 04:54:01;;;;;;;21.10;3.22;;;9.30;99.90;;;;;;5174471;27;20054;-85
2023/12/21 04:56:27;;;;;;;21.98;3.30;;;9.50;99.90;;;;;;5174768;27;20162;-86
2023/12/21 04:58:52;;;;;;;21.45;3.28;;;9.30;99.90;;;;;;5139448;27;20065;-85
2023/12/21 05:01:18;;;;;;;19.67;2.88;;;9.20;99.90;;;;;;5156864;27;20375;-86
2023/12/21 05:03:44;;;;;;;18.35;2.58;;;9.60;99.90;;;;;;5156787;27;20038;-86
2023/12/21 05:06:09;;;;;;;21.42;3.22;;;9.00;99.90;;;;;;5156773;27;20038;-86
2023/12/21 05:08:35;;;;;;;15.70;2.90;;;9.40;99.90;;;;;;5156751;27;20521;-86
2023/12/21 05:11:02;;;;;;;18.25;2.95;;;9.50;99.90;;;;;;5156448;27;20050;-85
2023/12/21 05:13:27;;;;;;;17.20;2.70;;;9.30;99.90;;;;;;5156435;27;20552;-86
2023/12/21 05:15:53;;;;;;;14.35;2.17;;;8.90;99.90;;;;;;5175046;27;20042;-85
2023/12/21 05:18:19;;;;;;;15.48;2.30;;;9.00;99.90;;;;;;5154973;27;20409;-86
2023/12/21 05:20:45;;;;;;;15.23;2.70;;;9.00;99.90;;;;;;5156307;27;20046;-85
2023/12/21 05:23:11;;;;;;;15.20;2.50;;;9.00;99.90;;;;;;5156867;27;20050;-85
2023/12/21 05:25:36;;;;;;;17.80;3.03;;;9.00;99.90;;;;;;5174815;27;20107;-85
2023/12/21 05:28:02;;;;;;;15.95;2.63;;;9.00;99.90;;;;;;5174561;27;20531;-85
2023/12/21 05:30:28;;;;;;;11.88;2.20;;;9.00;99.90;;;;;;5155592;27;20513;-85
2023/12/21 05:32:53;;;;;;;20.75;3.22;;;9.00;99.90;;;;;;5175215;27;20402;-85
2023/12/21 05:35:19;;;;;;;17.33;3.30;;;9.00;99.90;;;;;;5155909;27;20042;-85
2023/12/21 05:37:44;;;;;;;17.52;2.15;;;9.00;99.90;;;;;;5173962;27;20033;-85
2023/12/21 05:40:12;;;;;;;13.75;2.97;;;9.50;99.90;;;;;;5156216;27;20049;-85
2023/12/21 05:42:37;;;;;;;16.10;3.33;;;9.00;99.90;;;;;;5156476;27;20046;-86
2023/12/21 05:45:04;;;;;;;15.20;2.95;;;9.80;99.90;;;;;;5175314;27;20439;-86
2023/12/21 05:47:31;;;;;;;22.88;3.22;;;8.90;99.90;;;;;;5171231;27;20491;-85
2023/12/21 05:49:58;;;;;;;15.85;2.20;;;9.50;99.90;;;;;;5118051;27;20072;-85
2023/12/21 05:52:23;;;;;;;21.00;3.03;;;9.00;99.90;;;;;;5155123;27;20039;-85
2023/12/21 05:54:49;;;;;;;21.02;2.92;;;9.20;99.90;;;;;;5156511;27;20487;-85
2023/12/21 05:57:15;;;;;;;19.95;2.15;;;9.50;99.90;;;;;;5156102;27;20035;-85
2023/12/21 05:59:41;;;;;;;17.98;2.08;;;9.30;99.90;;;;;;5156093;27;20099;-85
2023/12/21 06:02:07;;;;;;;12.30;2.47;;;9.30;99.90;;;;;;5174724;27;20046;-85
2023/12/21 06:04:32;;;;;;;8.50;1.73;;;9.00;99.90;;;;;;5156121;27;20046;-85
2023/12/21 06:06:58;;;;;;;18.60;2.42;;;9.80;99.90;;;;;;5139253;27;20038;-85
2023/12/21 06:09:24;;;;;;;14.70;2.20;;;9.00;99.90;;;;;;5138822;27;20126;-85
2023/12/21 06:11:49;;;;;;;19.67;2.53;;;9.10;99.90;;;;;;5174127;27;20038;-84
2023/12/21 06:14:15;;;;;;;13.35;2.80;;;9.20;99.90;;;;;;5155147;27;20054;-85
2023/12/21 06:16:40;;;;;;;22.88;3.30;;;9.00;99.90;;;;;;5156542;27;20046;-85
2023/12/21 06:19:09;;;;;;;15.00;2.25;;;9.00;99.90;;;;;;5174615;27;20094;-85
2023/12/21 06:21:38;;;;;;;18.15;2.00;;;9.10;99.90;;;;;;5155667;27;20038;-85
2023/12/21 06:24:05;;;;;;;22.48;1.85;;;9.00;99.90;;;;;;5156004;27;20046;-84
2023/12/21 06:26:31;;;;;;;21.73;2.78;;;9.00;99.90;;;;;;5156031;27;20106;-85
2023/12/21 06:28:57;;;;;;;24.95;2.83;;;9.00;99.90;;;;;;5174497;27;20129;-85
2023/12/21 06:31:23;;;;;;;14.60;2.50;;;9.10;99.90;;;;;;5174038;27;20035;-85
2023/12/21 06:33:49;;;;;;;16.48;2.13;;;9.30;99.90;;;;;;5156154;27;20050;-85
2023/12/21 06:36:15;;;;;;;16.63;2.25;;;9.10;99.90;;;;;;5155524;27;20475;-85
2023/12/21 06:38:41;;;;;;;16.35;3.40;;;9.20;99.90;;;;;;5174561;27;20046;-86
2023/12/21 06:41:07;;;;;;;14.75;1.95;;;9.70;99.90;;;;;;5155575;27;20038;-86
2023/12/21 06:43:33;;;;;;;7.78;1.60;;;9.10;99.90;;;;;;5159012;27;20073;-85
2023/12/21 06:45:58;;;;;;;15.82;2.95;;;9.10;99.90;;;;;;5178103;27;20069;-85
2023/12/21 06:48:24;;;;;;;12.95;2.03;;;9.10;99.90;;;;;;5177813;27;20049;-86
2023/12/21 06:50:50;;;;;;;16.42;2.13;;;9.10;99.90;;;;;;5177860;27;20042;-85
2023/12/21 06:53:17;;;;;;;13.35;2.28;;;9.40;99.90;;;;;;5158646;27;20038;-85
2023/12/21 06:55:43;;;;;;;16.58;1.70;;;9.60;99.90;;;;;;5178287;27;20046;-86
2023/12/21 06:58:08;;;;;;;15.55;1.85;;;9.50;99.90;;;;;;5158712;27;20339;-85
2023/12/21 07:00:35;;;;;;;7.22;1.40;;;9.50;99.90;;;;;;5158730;27;20075;-85
2023/12/21 07:03:00;;;;;;;9.13;1.50;;;9.10;99.90;;;;;;5177871;27;20046;-85
2023/12/21 07:05:26;;;;;;;11.98;1.48;;;9.10;99.90;;;;;;5177795;27;20375;-87
2023/12/21 07:07:54;;;;;;;10.05;1.70;;;9.10;99.90;;;;;;5177092;27;20182;-87
2023/12/21 07:10:20;;;;;;;7.97;1.25;;;9.10;99.90;;;;;;5157687;27;20109;-85
2023/12/21 07:12:47;;;;;;;11.77;1.60;;;9.10;99.90;;;;;;5157954;27;20042;-85
2023/12/21 07:15:13;;;;;;;6.70;1.27;;;9.40;99.90;;;;;;5158825;27;20399;-86
2023/12/21 07:17:39;;;;;;;7.85;1.60;;;9.30;99.90;;;;;;5177165;27;20053;-86
2023/12/21 07:20:05;;;;;;;10.40;1.10;;;9.60;99.90;;;;;;5141701;27;20150;-86
2023/12/21 07:22:31;;;;;;;6.47;1.25;;;9.10;99.90;;;;;;5158899;27;20046;-86
2023/12/21 07:24:56;;;;;;;8.55;0.98;;;9.10;99.90;;;;;;5158584;27;20044;-87
2023/12/21 07:27:22;;;;;;;8.40;1.00;;;9.70;99.90;;;;;;5158492;27;20034;-86
2023/12/21 07:29:49;;;;;;;6.60;1.00;;;9.10;99.90;;;;;;5140735;27;20034;-86
2023/12/21 07:32:16;;;;;;;4.72;0.90;;;9.30;99.90;;;;;;5158278;27;20122;-84
2023/12/21 07:34:42;;;;;;;9.43;1.10;;;9.00;99.90;;;;;;5140647;27;20045;-83
2023/12/21 07:37:12;;;;;;;4.97;0.95;;;9.10;99.90;;;;;;5158804;27;20046;-85
2023/12/21 07:39:38;;;;;;;9.30;0.82;;;9.10;99.90;;;;;;5177544;27;20387;-85
2023/12/21 07:42:04;;;;;;;3.30;0.77;;;9.10;99.90;;;;;;5177168;27;20079;-84
2023/12/21 07:44:31;;;;;;;6.38;0.95;;;9.30;99.90;;;;;;5158392;27;20042;-84
2023/12/21 07:46:57;;;;;;;10.00;1.05;;;9.40;99.90;;;;;;5145233;27;20035;-85
2023/12/21 07:49:22;;;;;;;9.98;1.35;;;9.60;99.90;;;;;;5155953;27;20043;-85
2023/12/21 07:51:48;;;;;;;8.70;0.95;;;9.20;99.90;;;;;;5155210;27;20042;-85
2023/12/21 07:54:14;;;;;;;8.27;1.42;;;9.80;99.90;;;;;;5156802;27;20121;-85
2023/12/21 07:56:40;;;;;;;7.82;1.40;;;9.10;99.90;;;;;;5158061;27;20048;-85
2023/12/21 07:59:07;;;;;;;13.73;1.77;;;9.20;99.90;;;;;;5157779;27;20049;-85
2023/12/21 08:01:33;;;;;;;16.98;2.20;;;9.70;99.90;;;;;;5157911;27;20050;-84
2023/12/21 08:03:59;;;;;;;7.10;1.13;;;9.90;99.90;;;;;;5157715;27;20049;-84
2023/12/21 08:06:25;;;;;;;10.73;1.38;;;9.20;99.90;;;;;;5157777;27;20444;-84
2023/12/21 08:08:52;;;;;;;17.80;1.83;;;9.20;99.90;;;;;;5140527;27;20050;-85
2023/12/21 08:11:22;;;;;;;16.25;2.38;;;9.40;99.90;;;;;;5176383;27;20098;-85
2023/12/21 08:13:48;;;;;;;18.13;2.28;;;9.40;99.90;;;;;;5172476;27;20133;-85
2023/12/21 08:16:14;;;;;;;14.98;2.58;;;9.30;99.90;;;;;;5139972;27;20133;-85
2023/12/21 08:18:40;;;;;;;20.85;2.53;;;10.00;99.90;;;;;;5140150;27;20046;-85
2023/12/21 08:21:06;;;;;;;17.27;2.70;;;9.40;99.90;;;;;;5156956;27;20489;-85
2023/12/21 08:23:32;;;;;;;19.75;2.42;;;9.50;99.90;;;;;;5175777;27;20034;-85
2023/12/21 08:25:58;;;;;;;17.73;2.83;;;9.30;99.90;;;;;;5156335;27;20042;-84
2023/12/21 08:28:25;;;;;;;30.65;3.50;;;9.30;99.90;;;;;;5157037;27;20406;-86
2023/12/21 08:30:51;;;;;;;23.38;2.90;;;9.40;99.90;;;;;;5175725;27;20557;-85
2023/12/21 08:33:17;;;;;;;24.98;3.13;;;9.80;99.90;;;;;;5157271;27;20121;-86
2023/12/21 08:35:42;;;;;;;23.17;3.28;;;9.40;99.90;;;;;;5157292;27;20038;-86
2023/12/21 08:38:08;;;;;;;31.90;3.28;;;9.40;99.90;;;;;;5175118;27;20045;-85
2023/12/21 08:40:34;;;;;;;20.35;3.05;;;9.40;99.90;;;;;;5157421;27;20050;-85
2023/12/21 08:43:00;;;;;;;25.60;3.53;;;9.40;99.90;;;;;;5157201;27;20390;-85
2023/12/21 08:45:26;;;;;;;24.80;3.33;;;9.50;99.90;;;;;;5174875;27;20041;-86
2023/12/21 08:47:52;;;;;;;22.42;3.10;;;9.50;99.90;;;;;;5149748;27;20081;-85
2023/12/21 08:50:18;;;;;;;26.90;3.38;;;9.50;99.90;;;;;;5135891;27;20480;-86
2023/12/21 08:52:43;;;;;;;23.58;2.90;;;9.50;99.90;;;;;;5135834;27;20130;-85
2023/12/21 08:55:10;;;;;;;20.52;3.55;;;9.80;99.90;;;;;;5135907;27;20043;-85
2023/12/21 08:57:36;;;;;;;19.98;2.95;;;9.60;99.90;;;;;;5154424;27;20038;-84
2023/12/21 09:00:06;;;;;;;25.23;3.63;;;9.70;99.90;;;;;;5118813;27;20074;-84
2023/12/21 09:02:33;;;;;;;19.65;2.78;;;9.60;99.90;;;;;;5135775;27;20135;-85
2023/12/21 09:04:59;;;;;;;23.88;3.75;;;9.60;99.90;;;;;;5118434;27;20046;-85
2023/12/21 09:07:25;;;;;;;26.30;2.97;;;9.60;99.90;;;;;;5136045;27;20111;-85
2023/12/21 09:09:51;;;;;;;21.88;3.15;;;9.70;99.90;;;;;;5136070;27;20086;-85
2023/12/21 09:12:18;;;;;;;21.00;2.58;;;9.60;99.90;;;;;;5135563;27;20076;-84
2023/12/21 09:14:44;;;;;;;21.65;2.78;;;9.70;99.90;;;;;;5153953;27;20089;-85
2023/12/21 09:17:10;;;;;;;13.43;2.58;;;10.30;99.90;;;;;;5136142;27;20084;-85
2023/12/21 09:19:36;;;;;;;26.50;3.45;;;10.40;99.90;;;;;;5154313;27;20082;-85
2023/12/21 09:22:02;;;;;;;24.58;3.15;;;9.70;99.90;;;;;;5153997;27;20122;-85
2023/12/21 09:24:28;;;;;;;22.77;2.67;;;9.80;99.90;;;;;;5135909;27;20050;-85
2023/12/21 09:26:53;;;;;;;25.83;3.28;;;9.80;99.90;;;;;;5118679;27;20136;-87
2023/12/21 09:29:19;;;;;;;27.63;3.45;;;10.00;99.90;;;;;;5118627;27;20038;-85
2023/12/21 09:31:45;;;;;;;26.70;3.17;;;9.50;99.90;;;;;;5135288;27;20509;-85
2023/12/21 09:34:11;;;;;;;25.92;3.00;;;10.10;99.90;;;;;;5135670;27;20078;-85
2023/12/21 09:36:37;;;;;;;35.75;4.68;;;9.90;99.90;;;;;;5154280;27;20038;-85
2023/12/21 09:39:03;;;;;;;19.50;2.42;;;10.60;99.90;;;;;;5135667;27;20069;-86
2023/12/21 09:41:29;;;;;;;25.63;2.85;;;10.00;99.90;;;;;;5135895;27;20121;-85
2023/12/21 09:43:57;;;;;;;24.20;2.35;;;10.00;99.90;;;;;;5154301;27;20081;-85
2023/12/21 09:46:25;;;;;;;23.88;2.50;;;10.40;99.90;;;;;;5135914;27;20050;-85
2023/12/21 09:48:53;;;;;;;21.73;2.67;;;10.00;99.90;;;;;;5118383;27;20090;-85
2023/12/21 09:51:19;;;;;;;24.30;3.13;;;10.00;99.90;;;;;;5136114;27;20058;-85
2023/12/21 09:53:46;;;;;;;19.52;2.83;;;10.00;99.90;;;;;;5135708;27;20398;-86
2023/12/21 09:56:14;;;;;;;25.80;2.70;;;10.80;99.90;;;;;;5135887;27;20045;-85
2023/12/21 09:58:40;;;;;;;24.33;2.47;;;10.20;99.90;;;;;;5154039;27;20082;-85
2023/12/21 10:01:05;;;;;;;20.15;2.20;;;10.10;99.90;;;;;;5153923;27;20432;-86
2023/12/21 10:03:32;;;;;;;22.38;1.92;;;10.30;99.90;;;;;;5135517;27;20047;-85
2023/12/21 10:05:58;;;;;;;22.25;2.85;;;10.50;99.90;;;;;;5135522;27;20042;-86
2023/12/21 10:08:23;;;;;;;19.65;2.72;;;10.10;99.90;;;;;;5118608;27;20038;-84
2023/12/21 10:10:49;;;;;;;16.75;2.40;;;10.10;99.90;;;;;;5135286;27;20042;-85
2023/12/21 10:13:16;;;;;;;24.58;3.60;;;10.20;99.90;;;;;;5135148;27;21129;-85
2023/12/21 10:15:42;;;;;;;28.95;3.30;;;10.60;99.90;;;;;;5153885;27;20038;-85
2023/12/21 10:18:09;;;;;;;24.00;3.55;;;10.20;99.90;;;;;;5138412;27;20506;-84
2023/12/21 10:20:35;;;;;;;28.50;2.60;;;10.20;99.90;;;;;;5157294;27;20053;-85
2023/12/21 10:23:01;;;;;;;21.83;2.65;;;10.50;99.90;;;;;;5139122;27;20394;-85
2023/12/21 10:25:27;;;;;;;29.77;3.75;;;10.20;99.90;;;;;;5157923;27;20035;-85
2023/12/21 10:27:56;;;;;;;24.40;2.50;;;10.70;99.90;;;;;;5139127;27;20498;-85
2023/12/21 10:30:23;;;;;;;15.68;2.45;;;10.30;99.90;;;;;;5139195;27;20050;-85
2023/12/21 10:32:53;;;;;;;19.20;3.30;;;10.60;99.90;;;;;;5139492;27;20049;-85
2023/12/21 10:35:19;;;;;;;26.80;3.10;;;10.40;99.90;;;;;;5157265;27;20079;-84
2023/12/21 10:37:47;;;;;;;15.98;2.42;;;10.40;99.90;;;;;;5138513;27;20538;-85
2023/12/21 10:40:14;;;;;;;24.52;2.80;;;10.40;99.90;;;;;;5138877;27;20046;-85
2023/12/21 10:42:49;;;;;;;17.25;2.60;;;10.30;99.90;;;;;;5137932;27;20050;-85
2023/12/21 10:45:19;;;;;;;26.08;3.30;;;10.90;99.90;;;;;;5138852;27;20045;-85
2023/12/21 10:47:53;;;;;;;20.33;2.65;;;10.70;99.90;;;;;;5138665;27;20048;-85
2023/12/21 10:50:20;;;;;;;21.90;2.47;;;10.40;99.90;;;;;;5121420;27;20038;-85
2023/12/21 10:52:47;;;;;;;20.77;3.10;;;11.00;99.90;;;;;;5138349;27;20035;-86
2023/12/21 10:55:17;;;;;;;29.48;3.67;;;10.30;99.90;;;;;;5156965;27;20053;-85
2023/12/21 10:57:45;;;;;;;24.42;3.50;;;10.70;99.90;;;;;;5157126;27;20043;-85
2023/12/21 11:00:15;;;;;;;15.40;2.35;;;10.40;99.90;;;;;;5138966;27;20441;-84
2023/12/21 11:02:46;;;;;;;30.02;2.60;;;10.50;99.90;;;;;;5139042;27;20038;-85
2023/12/21 11:05:19;;;;;;;24.00;3.03;;;10.70;99.90;;;;;;5121593;27;20398;-85
2023/12/21 11:07:54;;;;;;;27.08;3.38;;;10.80;99.90;;;;;;5157095;27;20038;-84
2023/12/21 11:10:22;;;;;;;19.83;2.42;;;10.50;99.90;;;;;;5137740;27;20103;-85
2023/12/21 11:12:48;;;;;;;21.58;3.55;;;11.00;99.90;;;;;;5121303;27;20034;-85
2023/12/21 11:15:22;;;;;;;29.15;3.25;;;10.50;99.90;;;;;;5138427;27;20053;-86
2023/12/21 11:18:03;;;;;;;22.73;3.28;;;10.40;99.90;;;;;;5138410;27;20050;-85
2023/12/21 11:20:34;;;;;;;20.73;2.85;;;11.10;99.90;;;;;;5137599;27;20047;-85
2023/12/21 11:23:06;;;;;;;19.55;2.88;;;10.50;99.90;;;;;;5138101;27;20080;-85
2023/12/21 11:25:33;;;;;;;19.05;3.20;;;10.40;99.90;;;;;;5138101;27;20293;-85
2023/12/21 11:28:00;;;;;;;19.55;2.88;;;10.40;99.90;;;;;;5137368;27;20042;-85
2023/12/21 11:30:29;;;;;;;21.20;3.83;;;10.40;99.90;;;;;;5138135;27;20047;-85
2023/12/21 11:33:09;;;;;;;17.35;2.22;;;10.40;99.90;;;;;;5138337;27;20053;-86
2023/12/21 11:35:35;;;;;;;21.92;2.97;;;10.40;99.90;;;;;;5137927;27;20043;-85
2023/12/21 11:38:05;;;;;;;20.40;3.45;;;10.70;99.90;;;;;;5138042;27;20054;-85
2023/12/21 11:40:33;;;;;;;28.58;3.92;;;11.10;99.90;;;;;;5137866;27;20513;-85
2023/12/21 11:43:00;;;;;;;19.63;3.28;;;11.30;99.90;;;;;;5120729;27;20371;-85
2023/12/21 11:45:31;;;;;;;30.67;4.15;;;10.50;99.90;;;;;;5138020;27;20043;-85
2023/12/21 11:48:06;;;;;;;32.17;3.50;;;11.30;99.90;;;;;;5137598;27;20123;-85
2023/12/21 11:50:33;;;;;;;27.65;4.18;;;10.60;99.90;;;;;;5137970;27;20179;-85
2023/12/21 11:53:12;;;;;;;21.45;2.97;;;10.60;99.90;;;;;;5156482;27;20039;-85
2023/12/21 11:55:42;;;;;;;24.33;3.28;;;10.50;99.90;;;;;;5156372;27;20046;-85
2023/12/21 11:58:25;;;;;;;25.50;4.25;;;10.60;99.90;;;;;;5120269;27;20478;-85
2023/12/21 12:00:56;;;;;;;24.15;3.13;;;10.80;99.90;;;;;;5137659;27;20465;-85
2023/12/21 12:03:23;;;;;;;23.40;4.03;;;10.70;99.90;;;;;;5137640;27;20085;-85
2023/12/21 12:05:53;;;;;;;27.50;4.50;;;10.80;99.90;;;;;;5137544;27;20050;-85
2023/12/21 12:08:25;;;;;;;28.70;3.80;;;10.80;99.90;;;;;;5137643;27;20058;-85
2023/12/21 12:10:55;;;;;;;30.75;4.68;;;10.60;99.90;;;;;;5137590;27;20391;-85
2023/12/21 12:13:21;;;;;;;24.55;3.60;;;10.70;99.90;;;;;;5153166;27;20055;-85
2023/12/21 12:15:48;;;;;;;34.47;4.65;;;10.70;99.90;;;;;;5136993;27;20051;-85
2023/12/21 12:18:16;;;;;;;26.33;4.57;;;10.60;99.90;;;;;;5137047;27;20046;-85
2023/12/21 12:20:43;;;;;;;32.22;5.00;;;10.70;99.90;;;;;;5137130;27;20513;-85
2023/12/21 12:23:09;;;;;;;24.27;5.00;;;10.70;99.90;;;;;;5137183;27;20077;-85
2023/12/21 12:25:36;;;;;;;26.75;3.65;;;10.70;99.90;;;;;;5136895;27;20107;-84
2023/12/21 12:28:03;;;;;;;12.32;2.22;;;10.60;99.90;;;;;;5136651;27;20046;-85
2023/12/21 12:30:30;;;;;;;7.90;1.02;;;10.70;99.90;;;;;;5137202;27;20099;-85
2023/12/21 12:32:56;;;;;;;11.02;1.23;;;10.00;99.90;;;;;;5136741;27;20126;-85
2023/12/21 12:35:22;;;;;;;5.85;1.20;;;9.00;99.90;;;;;;5120258;27;20043;-86
2023/12/21 12:37:51;;;;;;;5.55;1.02;;;8.70;99.90;;;;;;5137778;27;20099;-85
2023/12/21 12:40:17;;;;;;;12.98;1.23;;;8.40;99.90;;;;;;5154545;27;20111;-85
2023/12/21 12:42:43;;;;;;;14.90;1.63;;;8.30;99.90;;;;;;5155214;27;20042;-85